Utica, Ohio
Current Conditions -  °F | °C
As of 11:35 PM on Tuesday 21 Oct 2014 (Local Time) from K4I3 Reporting Station
Overcast Overcast  
Wind Chill: 36°   Ceiling: 1200
Heat Index: 43°   Visibility: 7mi
Dew Point: 41°   Wind: 13mph
Humidity: 93%   Direction: 330°NNW
Pressure: 30.12"   Gusts: 18mph
Location:  40.23°N, 82.45°W
Report Text: K4I3 220335Z AUTO 33011G16KT 7SM OVC012 06/05 A3012 RMK AO2
Loading
Personal Weather Stations






























Interactive Weather Map
Tropical Storm Tracking
New forecast layout! Learn more

10-Day Weather Forecast

Advertisements
Track Severe Weather on mobile